Time;durP1;ratioP1;P1;durP2;ratioP2;P2;SDS_P1;SDS_P2;PMS_P1;PMS_P2;Temp;Humidity;BMP_temperature;BMP_pressure;BME280_temperature;BME280_humidity;BME280_pressure;Samples;Min_cycle;Max_cycle;Signal;HPM_P1;HPM_P2
2022/04/13 00:00:13;;;;;;;14.90;8.82;;;;;;;15.64;46.09;101637.00;5049603;28;20084;-61
2022/04/13 00:02:40;;;;;;;15.77;8.55;;;;;;;15.61;46.09;101639.84;5047859;28;20068;-61
2022/04/13 00:05:09;;;;;;;13.00;8.73;;;;;;;15.60;46.14;101634.66;5031838;28;20073;-61
2022/04/13 00:07:36;;;;;;;16.50;9.00;;;;;;;15.58;46.22;101629.47;5044757;28;20048;-61
2022/04/13 00:10:05;;;;;;;12.90;8.50;;;;;;;15.56;45.98;101636.63;5043944;28;20107;-60
2022/04/13 00:12:31;;;;;;;16.60;9.27;;;;;;;15.55;45.97;101640.22;5032264;28;20073;-62
2022/04/13 00:14:58;;;;;;;12.88;8.90;;;;;;;15.52;45.90;101638.63;5032305;28;20045;-61
2022/04/13 00:17:24;;;;;;;14.23;8.77;;;;;;;15.52;45.89;101629.84;5031842;28;20088;-60
2022/04/13 00:19:51;;;;;;;14.95;9.57;;;;;;;15.56;45.81;101634.00;5039011;28;20107;-61
2022/04/13 00:22:17;;;;;;;13.27;8.75;;;;;;;15.54;45.90;101630.59;5051925;28;20559;-61
2022/04/13 00:24:44;;;;;;;11.63;7.97;;;;;;;15.49;45.95;101633.53;5051209;28;20041;-60
2022/04/13 00:27:11;;;;;;;11.88;8.55;;;;;;;15.51;45.90;101625.50;5052014;28;20049;-60
2022/04/13 00:29:37;;;;;;;11.95;8.27;;;;;;;15.49;45.81;101620.31;5051799;28;20058;-61
2022/04/13 00:32:04;;;;;;;14.38;8.73;;;;;;;15.46;45.93;101619.66;5051710;28;20045;-60
2022/04/13 00:34:31;;;;;;;13.27;8.27;;;;;;;15.44;46.17;101627.69;5051737;28;20048;-62
2022/04/13 00:37:04;;;;;;;14.18;8.98;;;;;;;15.43;45.84;101623.34;5051832;28;20045;-60
2022/04/13 00:39:42;;;;;;;11.82;8.35;;;;;;;15.37;46.05;101613.16;5051596;28;20128;-60
2022/04/13 00:42:20;;;;;;;17.17;8.80;;;;;;;15.37;46.06;101620.25;5045448;28;20474;-60
2022/04/13 00:44:52;;;;;;;14.90;8.50;;;;;;;15.34;46.14;101623.94;5032070;28;20049;-61
2022/04/13 00:47:18;;;;;;;17.30;9.48;;;;;;;15.34;46.26;101618.63;5031865;28;20435;-61
2022/04/13 00:49:45;;;;;;;14.05;10.10;;;;;;;15.32;46.31;101620.53;5031726;28;20098;-61
2022/04/13 00:52:13;;;;;;;13.43;8.85;;;;;;;15.28;46.31;101619.84;5031668;28;20561;-61
2022/04/13 00:54:43;;;;;;;17.85;9.05;;;;;;;15.28;46.42;101617.22;5031756;28;20050;-61
2022/04/13 00:57:11;;;;;;;14.95;9.13;;;;;;;15.34;46.33;101616.00;5031654;28;20092;-61
2022/04/13 00:59:39;;;;;;;14.90;9.20;;;;;;;15.30;46.55;101614.47;5049898;28;20091;-61
2022/04/13 01:02:07;;;;;;;16.00;9.30;;;;;;;15.28;46.28;101614.56;5051393;28;20106;-61
2022/04/13 01:04:35;;;;;;;14.02;9.20;;;;;;;15.25;46.40;101612.13;5051588;28;20472;-61
2022/04/13 01:07:06;;;;;;;11.43;8.32;;;;;;;15.25;46.52;101611.25;5051606;28;20169;-61
2022/04/13 01:09:33;;;;;;;15.18;9.15;;;;;;;15.23;46.35;101613.16;5052226;28;20045;-61
2022/04/13 01:12:00;;;;;;;14.43;9.32;;;;;;;15.21;46.45;101610.63;5055162;28;20041;-62
2022/04/13 01:14:26;;;;;;;16.20;10.07;;;;;;;15.16;46.70;101610.03;5050127;28;20053;-61
2022/04/13 01:16:53;;;;;;;14.50;8.85;;;;;;;15.14;46.85;101607.50;5035289;28;20085;-61
2022/04/13 01:19:20;;;;;;;15.45;9.70;;;;;;;15.12;46.80;101608.53;5034838;28;20053;-61
2022/04/13 01:21:58;;;;;;;11.25;8.95;;;;;;;15.12;46.81;101608.53;5035008;28;20469;-61
2022/04/13 01:24:25;;;;;;;13.23;9.05;;;;;;;15.11;47.15;101612.13;5034912;28;20056;-61
2022/04/13 01:26:52;;;;;;;16.00;9.80;;;;;;;15.09;46.73;101611.38;5035030;28;20049;-61
2022/04/13 01:29:19;;;;;;;15.18;9.98;;;;;;;15.05;47.08;101613.38;5034620;28;20053;-61
2022/04/13 01:31:45;;;;;;;14.20;9.55;;;;;;;14.99;47.23;101611.09;5033931;28;20247;-61
2022/04/13 01:34:13;;;;;;;13.00;9.48;;;;;;;14.98;47.35;101619.97;5034807;28;20093;-61
2022/04/13 01:36:39;;;;;;;16.77;10.25;;;;;;;15.01;47.27;101622.44;5034847;28;20060;-61
2022/04/13 01:39:08;;;;;;;15.88;9.93;;;;;;;15.01;47.29;101617.97;5034571;28;20127;-61
2022/04/13 01:41:34;;;;;;;14.05;9.00;;;;;;;14.98;47.38;101615.53;5034703;28;20103;-61
2022/04/13 01:44:01;;;;;;;14.85;10.45;;;;;;;14.98;47.38;101615.53;5034554;28;20045;-62
2022/04/13 01:46:28;;;;;;;13.68;10.05;;;;;;;14.98;47.55;101619.97;5034718;28;20430;-61
2022/04/13 01:48:54;;;;;;;12.05;9.15;;;;;;;14.97;47.71;101623.53;5033964;28;20061;-61
2022/04/13 01:51:21;;;;;;;13.82;10.00;;;;;;;14.96;47.78;101616.59;5034507;28;20041;-61
2022/04/13 01:53:49;;;;;;;17.52;9.95;;;;;;;14.91;47.80;101616.84;5034391;28;20478;-61
2022/04/13 01:56:16;;;;;;;14.35;9.80;;;;;;;14.88;48.10;101614.41;5034330;28;20115;-62
2022/04/13 01:58:43;;;;;;;15.43;10.13;;;;;;;14.82;48.32;101617.41;5034288;28;20045;-61
2022/04/13 02:01:10;;;;;;;13.75;10.23;;;;;;;14.74;48.50;101615.25;5034101;28;20052;-61
2022/04/13 02:03:37;;;;;;;14.98;10.20;;;;;;;14.68;48.42;101619.09;5033963;28;20545;-60
2022/04/13 02:06:04;;;;;;;16.67;10.57;;;;;;;14.63;48.86;101613.19;5034194;28;20041;-60
2022/04/13 02:08:30;;;;;;;15.13;9.50;;;;;;;14.62;49.09;101615.94;5034066;28;20049;-61
2022/04/13 02:10:57;;;;;;;15.70;10.77;;;;;;;14.58;49.23;101609.16;5034077;28;20089;-61
2022/04/13 02:13:24;;;;;;;15.63;10.00;;;;;;;14.54;49.51;101611.13;5033956;28;20045;-61
2022/04/13 02:15:50;;;;;;;16.40;10.50;;;;;;;14.56;49.37;101608.38;5033962;28;20172;-61
2022/04/13 02:18:17;;;;;;;15.25;11.10;;;;;;;14.57;49.22;101612.72;5033799;28;20053;-61
2022/04/13 02:20:43;;;;;;;14.63;10.52;;;;;;;14.53;49.32;101602.31;5048342;28;20099;-61
2022/04/13 02:23:10;;;;;;;15.75;10.23;;;;;;;14.48;49.48;101607.03;5053594;28;20045;-61
2022/04/13 02:25:37;;;;;;;16.98;10.35;;;;;;;14.40;49.75;101611.94;5053770;28;20045;-60
2022/04/13 02:28:04;;;;;;;14.82;9.98;;;;;;;14.38;49.58;101605.88;5053770;28;20049;-61
2022/04/13 02:30:31;;;;;;;15.68;9.95;;;;;;;14.35;49.67;101609.56;5053521;28;20049;-61
2022/04/13 02:32:59;;;;;;;14.90;9.80;;;;;;;14.33;49.96;101611.41;5053543;28;20049;-61
2022/04/13 02:35:26;;;;;;;16.85;9.55;;;;;;;14.29;49.77;101609.91;5042773;28;20045;-62
2022/04/13 02:37:53;;;;;;;15.48;10.65;;;;;;;14.25;49.98;101612.84;5033615;28;20041;-62
2022/04/13 02:40:20;;;;;;;16.83;10.05;;;;;;;14.19;50.10;101609.63;5033383;28;20759;-61
2022/04/13 02:42:46;;;;;;;18.33;11.05;;;;;;;14.18;50.29;101615.84;5033409;28;20050;-61
2022/04/13 02:45:13;;;;;;;15.40;10.98;;;;;;;14.15;50.33;101602.78;5033476;28;20141;-61
2022/04/13 02:47:39;;;;;;;14.60;10.75;;;;;;;14.15;50.44;101594.88;5033353;28;20092;-61
2022/04/13 02:50:07;;;;;;;17.38;11.35;;;;;;;14.20;50.70;101592.81;5033049;28;20140;-61
2022/04/13 02:52:33;;;;;;;18.48;11.57;;;;;;;14.17;50.51;101595.66;5032856;28;20501;-61
2022/04/13 02:55:00;;;;;;;17.75;12.05;;;;;;;14.19;50.63;101601.69;5033142;28;20046;-62
2022/04/13 02:57:27;;;;;;;21.02;12.02;;;;;;;14.14;50.86;101598.44;5033171;28;20482;-61
2022/04/13 02:59:53;;;;;;;15.82;11.38;;;;;;;14.11;50.94;101605.72;5033123;28;20085;-61
2022/04/13 03:02:20;;;;;;;18.42;12.18;;;;;;;14.08;51.13;101601.47;5048267;28;20049;-61
2022/04/13 03:04:47;;;;;;;15.73;11.63;;;;;;;14.06;51.07;101599.84;5048483;28;20122;-60
2022/04/13 03:07:17;;;;;;;16.00;10.65;;;;;;;14.02;50.98;101599.19;5049151;28;20497;-61
2022/04/13 03:09:45;;;;;;;14.85;11.32;;;;;;;13.96;51.37;101599.53;5041876;28;20406;-61
2022/04/13 03:12:12;;;;;;;16.45;11.77;;;;;;;13.91;51.74;101604.22;5029698;28;20088;-61
2022/04/13 03:14:40;;;;;;;15.55;11.07;;;;;;;13.90;51.55;101602.50;5029962;28;20503;-61
2022/04/13 03:17:07;;;;;;;18.25;12.00;;;;;;;13.88;51.76;101602.59;5029456;28;20184;-61
2022/04/13 03:19:34;;;;;;;16.02;11.30;;;;;;;13.85;51.61;101600.13;5029204;28;20157;-61
2022/04/13 03:22:00;;;;;;;17.83;11.63;;;;;;;13.84;51.91;101590.50;5029421;28;20076;-61
2022/04/13 03:24:27;;;;;;;16.60;10.93;;;;;;;13.82;51.94;101592.41;5029390;28;20119;-61
2022/04/13 03:26:54;;;;;;;18.98;12.38;;;;;;;13.83;51.86;101586.19;5029440;28;20049;-61
2022/04/13 03:29:20;;;;;;;17.38;13.02;;;;;;;13.82;52.12;101587.13;5029537;28;20103;-61
2022/04/13 03:31:47;;;;;;;20.08;13.35;;;;;;;13.82;52.19;101585.31;5028844;28;20064;-60
2022/04/13 03:34:14;;;;;;;18.08;12.75;;;;;;;13.84;52.15;101590.50;5029005;28;20050;-61
2022/04/13 03:36:40;;;;;;;19.35;13.57;;;;;;;13.87;51.91;101587.72;5029219;28;20107;-61
2022/04/13 03:39:07;;;;;;;20.27;13.77;;;;;;;13.86;51.99;101586.00;5029234;28;20077;-61
2022/04/13 03:41:35;;;;;;;22.30;14.30;;;;;;;13.84;52.05;101591.38;5028936;28;20107;-61
2022/04/13 03:44:03;;;;;;;18.88;13.60;;;;;;;13.81;52.21;101596.81;5029011;28;20540;-61
2022/04/13 03:46:31;;;;;;;23.35;13.73;;;;;;;13.83;52.35;101591.47;5029050;28;20084;-61
2022/04/13 03:48:58;;;;;;;19.02;13.50;;;;;;;13.80;52.10;101586.34;5028884;28;20049;-61
2022/04/13 03:51:25;;;;;;;20.55;14.02;;;;;;;13.78;52.24;101583.81;5033091;28;20049;-61
2022/04/13 03:53:52;;;;;;;22.40;14.32;;;;;;;13.78;52.17;101586.44;5040464;28;20110;-61
2022/04/13 03:56:18;;;;;;;22.20;14.90;;;;;;;13.77;52.40;101595.28;5047320;28;20079;-60
2022/04/13 03:58:45;;;;;;;21.85;14.30;;;;;;;13.66;52.65;101590.63;5042281;28;20098;-61
2022/04/13 04:01:12;;;;;;;18.58;13.80;;;;;;;13.64;52.55;101589.84;5048766;28;20049;-61
2022/04/13 04:03:39;;;;;;;24.63;14.77;;;;;;;13.66;52.68;101579.22;5048973;28;20049;-61
2022/04/13 04:06:05;;;;;;;22.27;14.90;;;;;;;13.67;52.51;101588.84;5028992;28;20077;-61
2022/04/13 04:08:35;;;;;;;19.20;13.30;;;;;;;13.67;52.66;101584.41;5028971;28;20041;-61
2022/04/13 04:11:02;;;;;;;26.83;13.95;;;;;;;13.69;52.73;101585.16;5028559;28;20490;-61
2022/04/13 04:13:29;;;;;;;22.90;14.60;;;;;;;13.71;52.71;101595.63;5028888;28;20195;-60
2022/04/13 04:15:55;;;;;;;24.42;14.20;;;;;;;13.68;52.70;101588.72;5028904;28;20049;-61
2022/04/13 04:18:22;;;;;;;26.70;14.52;;;;;;;13.68;52.59;101593.19;5028637;28;20068;-60
2022/04/13 04:20:49;;;;;;;24.35;14.43;;;;;;;13.67;52.72;101591.47;5028828;28;20080;-61
2022/04/13 04:23:15;;;;;;;18.83;14.27;;;;;;;13.66;52.96;101595.03;5028600;28;20104;-61
2022/04/13 04:25:42;;;;;;;18.40;14.18;;;;;;;13.67;52.83;101607.28;5028780;28;20115;-61
2022/04/13 04:28:11;;;;;;;19.83;14.27;;;;;;;13.62;53.07;101610.19;5028600;28;20041;-60
2022/04/13 04:30:39;;;;;;;21.90;15.38;;;;;;;13.58;53.23;101613.94;5028714;28;20089;-61
2022/04/13 04:33:06;;;;;;;20.40;14.40;;;;;;;13.51;53.60;101608.16;5029513;28;20111;-61
2022/04/13 04:35:33;;;;;;;21.50;14.15;;;;;;;13.45;53.49;101611.13;5030559;28;20081;-61
2022/04/13 04:38:00;;;;;;;21.55;14.00;;;;;;;13.45;53.54;101615.56;5042836;28;20049;-61
2022/04/13 04:40:27;;;;;;;19.25;14.70;;;;;;;13.43;53.19;101615.63;5048297;28;20551;-61
2022/04/13 04:42:55;;;;;;;22.27;14.25;;;;;;;13.38;53.78;101618.53;5048508;28;20452;-61
2022/04/13 04:45:22;;;;;;;21.63;14.85;;;;;;;13.36;53.82;101624.78;5037362;28;20053;-61
2022/04/13 04:47:49;;;;;;;21.60;14.52;;;;;;;13.34;53.75;101621.38;5046500;28;20068;-61
2022/04/13 04:50:18;;;;;;;20.10;13.48;;;;;;;13.32;53.87;101620.59;5033175;28;20088;-61
2022/04/13 04:52:46;;;;;;;18.02;13.52;;;;;;;13.35;54.04;101628.34;5052239;28;20053;-61
2022/04/13 04:55:16;;;;;;;5.43;3.95;;;;;;;13.62;54.29;101631.28;5051909;28;20099;-62
2022/04/13 04:57:44;;;;;;;18.23;13.80;;;;;;;14.14;53.45;101622.19;5052146;28;20045;-60
2022/04/13 05:00:13;;;;;;;18.17;14.27;;;;;;;13.81;53.95;101625.00;5051804;28;20045;-61
2022/04/13 05:02:39;;;;;;;19.95;13.35;;;;;;;13.67;54.08;101623.13;5052053;28;20111;-61
2022/04/13 05:05:07;;;;;;;17.08;13.35;;;;;;;13.61;54.07;101629.59;5045250;28;20073;-61
2022/04/13 05:07:33;;;;;;;20.58;13.85;;;;;;;13.59;54.02;101633.25;5031933;28;20041;-60
2022/04/13 05:10:00;;;;;;;21.00;13.95;;;;;;;13.55;53.90;101630.78;5031636;28;20084;-61
2022/04/13 05:12:27;;;;;;;19.80;13.82;;;;;;;13.53;53.83;101627.38;5031823;28;20076;-61
2022/04/13 05:14:55;;;;;;;21.15;13.70;;;;;;;13.50;53.98;101631.97;5031667;28;20474;-60
2022/04/13 05:17:23;;;;;;;17.52;13.98;;;;;;;13.48;53.83;101631.19;5031690;28;20103;-61
2022/04/13 05:19:50;;;;;;;21.15;14.48;;;;;;;13.49;53.75;101636.38;5032076;28;20077;-59
2022/04/13 05:22:17;;;;;;;20.10;14.18;;;;;;;13.50;53.68;101637.25;5031287;28;20098;-61
2022/04/13 05:24:44;;;;;;;23.13;13.98;;;;;;;13.49;53.74;101638.19;5031493;28;20041;-60
2022/04/13 05:27:10;;;;;;;23.88;13.57;;;;;;;13.49;53.67;101643.44;5031520;28;20049;-61
2022/04/13 05:29:37;;;;;;;21.55;13.75;;;;;;;13.52;53.66;101644.13;5031527;28;20088;-61
2022/04/13 05:32:04;;;;;;;19.73;14.02;;;;;;;13.54;53.58;101654.59;5031683;28;20638;-61
2022/04/13 05:34:31;;;;;;;23.48;14.25;;;;;;;13.55;53.65;101651.03;5031585;28;20053;-61
2022/04/13 05:36:58;;;;;;;21.83;13.80;;;;;;;13.59;53.66;101655.19;5031262;28;20048;-61
2022/04/13 05:39:25;;;;;;;18.83;14.02;;;;;;;13.61;53.54;101647.19;5031443;28;20095;-61
2022/04/13 05:41:52;;;;;;;17.92;13.50;;;;;;;13.64;53.58;101650.50;5031435;28;20100;-60
2022/04/13 05:44:19;;;;;;;22.83;14.57;;;;;;;13.67;53.49;101657.41;5031410;28;20081;-60
2022/04/13 05:46:45;;;;;;;19.77;13.98;;;;;;;13.71;53.27;101659.81;5031121;28;20045;-61
2022/04/13 05:49:13;;;;;;;20.98;13.32;;;;;;;13.69;53.39;101659.03;5031442;28;20099;-60
2022/04/13 05:51:40;;;;;;;19.33;14.32;;;;;;;13.70;53.20;101662.53;5031192;28;20127;-60
2022/04/13 05:54:06;;;;;;;20.92;14.77;;;;;;;13.68;53.33;101664.38;5034776;28;20111;-62
2022/04/13 05:56:33;;;;;;;32.63;15.35;;;;;;;13.73;53.30;101672.06;5049777;28;20110;-61
2022/04/13 05:59:00;;;;;;;24.75;15.88;;;;;;;13.67;53.47;101681.97;5050991;28;20045;-61
2022/04/13 06:01:26;;;;;;;22.08;14.85;;;;;;;13.72;53.42;101679.09;5050771;28;20067;-61
2022/04/13 06:03:53;;;;;;;22.10;14.75;;;;;;;13.77;53.30;101684.13;5050422;28;20048;-60
2022/04/13 06:06:21;;;;;;;22.38;15.43;;;;;;;13.83;53.34;101686.44;5050671;28;20055;-60
2022/04/13 06:08:48;;;;;;;21.58;15.30;;;;;;;13.87;53.37;101680.88;5050772;28;20132;-60
2022/04/13 06:11:15;;;;;;;22.45;15.93;;;;;;;13.95;53.21;101691.00;5043749;28;20047;-61
2022/04/13 06:13:41;;;;;;;20.17;15.55;;;;;;;14.10;53.09;101694.59;5030536;28;20061;-61
2022/04/13 06:16:08;;;;;;;24.30;15.85;;;;;;;14.17;53.32;101692.44;5030620;28;20499;-61
2022/04/13 06:18:35;;;;;;;23.58;16.13;;;;;;;14.23;53.17;101707.09;5030244;28;20156;-60
2022/04/13 06:21:02;;;;;;;23.38;16.33;;;;;;;14.26;53.34;101705.16;5030246;28;20042;-63
2022/04/13 06:23:29;;;;;;;22.40;15.27;;;;;;;14.32;53.49;101702.16;5030742;28;20069;-60
2022/04/13 06:25:55;;;;;;;21.55;15.30;;;;;;;14.37;53.54;101710.66;5030495;28;20045;-61
2022/04/13 06:28:22;;;;;;;23.38;14.93;;;;;;;14.43;53.27;101709.44;5029798;28;20049;-60
2022/04/13 06:30:49;;;;;;;19.80;14.63;;;;;;;14.52;53.29;101706.28;5030357;28;20479;-61
2022/04/13 06:33:16;;;;;;;21.20;13.90;;;;;;;14.59;53.48;101712.06;5030049;28;20050;-61
2022/04/13 06:35:42;;;;;;;21.48;13.93;;;;;;;14.65;53.32;101710.88;5030616;28;20045;-61
2022/04/13 06:38:09;;;;;;;25.38;14.55;;;;;;;14.80;53.04;101715.25;5029917;28;20050;-60
2022/04/13 06:40:35;;;;;;;20.80;14.43;;;;;;;14.93;52.93;101703.97;5030610;28;20108;-60
2022/04/13 06:43:02;;;;;;;20.52;14.38;;;;;;;15.04;52.74;101711.25;5029898;28;20042;-60
2022/04/13 06:45:29;;;;;;;22.55;14.27;;;;;;;15.14;52.76;101712.41;5049536;28;20049;-60
2022/04/13 06:47:56;;;;;;;19.90;13.05;;;;;;;15.24;52.66;101710.91;5049739;28;20084;-61
2022/04/13 06:50:22;;;;;;;19.40;12.75;;;;;;;15.39;52.34;101719.69;5049627;28;20436;-60
2022/04/13 06:52:49;;;;;;;20.08;12.75;;;;;;;15.49;52.35;101718.19;5049898;28;20048;-60
2022/04/13 06:55:16;;;;;;;19.02;11.75;;;;;;;15.58;51.88;101721.19;5049354;28;20095;-63
2022/04/13 06:57:42;;;;;;;18.13;12.00;;;;;;;15.65;51.70;101717.22;5049691;28;20045;-62
2022/04/13 07:00:11;;;;;;;18.27;11.52;;;;;;;15.78;51.67;101718.16;5045930;28;20083;-61
2022/04/13 07:02:39;;;;;;;18.67;11.80;;;;;;;15.91;51.48;101717.41;5047215;28;20126;-60
2022/04/13 07:05:27;;;;;;;15.57;10.70;;;;;;;16.04;50.95;101718.31;5049297;28;20559;-60
2022/04/13 07:07:58;;;;;;;17.60;11.98;;;;;;;16.19;50.87;101720.91;5049221;28;20048;-60
2022/04/13 07:10:28;;;;;;;16.25;10.93;;;;;;;16.28;50.67;101723.00;5049512;28;20606;-61
2022/04/13 07:12:55;;;;;;;16.60;11.43;;;;;;;16.39;50.33;101720.50;5049423;28;20118;-61
2022/04/13 07:15:23;;;;;;;19.08;11.60;;;;;;;16.51;50.06;101723.28;5047338;28;20141;-61
2022/04/13 07:17:50;;;;;;;16.83;11.48;;;;;;;16.57;49.82;101720.19;5036807;28;20136;-61
2022/04/13 07:20:18;;;;;;;14.10;10.73;;;;;;;16.68;49.42;101722.16;5029581;28;20052;-62
2022/04/13 07:22:54;;;;;;;17.25;10.50;;;;;;;16.81;49.35;101725.66;5029485;28;20152;-61
2022/04/13 07:25:22;;;;;;;17.58;10.88;;;;;;;16.91;48.96;101724.16;5028521;28;20129;-61
2022/04/13 07:27:49;;;;;;;15.70;10.65;;;;;;;16.92;48.81;101719.69;5028883;28;20579;-62
2022/04/13 07:30:16;;;;;;;18.00;10.60;;;;;;;17.01;48.37;101723.50;5044835;28;20045;-61
2022/04/13 07:32:44;;;;;;;13.55;10.27;;;;;;;17.04;47.89;101724.16;5048375;28;20073;-60
2022/04/13 07:35:12;;;;;;;17.40;10.57;;;;;;;17.13;47.54;101726.16;5047458;28;20049;-61
2022/04/13 07:37:40;;;;;;;14.68;9.90;;;;;;;17.21;46.52;101728.28;5048854;28;20045;-61
2022/04/13 07:40:10;;;;;;;16.17;10.48;;;;;;;17.31;46.66;101725.84;5048804;28;20082;-61
2022/04/13 07:42:37;;;;;;;14.13;10.82;;;;;;;17.38;46.31;101723.59;5048253;28;20095;-60
2022/04/13 07:45:06;;;;;;;20.33;8.32;;;;;;;17.56;46.17;101724.97;5048305;28;20485;-61
2022/04/13 07:47:33;;;;;;;14.95;8.10;;;;;;;17.75;45.42;101727.16;5048168;28;20049;-61
2022/04/13 07:49:59;;;;;;;14.75;6.43;;;;;;;17.93;45.47;101724.16;5035128;28;20080;-61
2022/04/13 07:52:26;;;;;;;14.93;6.38;;;;;;;18.17;46.07;101731.31;5028871;28;20049;-61
2022/04/13 07:54:52;;;;;;;16.40;8.18;;;;;;;18.27;46.16;101727.88;5027857;28;20080;-61
2022/04/13 07:57:19;;;;;;;12.10;6.55;;;;;;;18.39;45.74;101730.59;5028528;28;20080;-61
2022/04/13 07:59:46;;;;;;;13.90;8.15;;;;;;;18.50;46.58;101729.78;5044467;28;20056;-60
2022/04/13 08:02:12;;;;;;;11.65;7.63;;;;;;;18.53;47.24;101729.56;5048329;28;20055;-61
2022/04/13 08:04:39;;;;;;;10.43;7.72;;;;;;;18.60;47.08;101728.13;5047822;28;20102;-61
2022/04/13 08:07:06;;;;;;;11.57;7.18;;;;;;;18.66;46.76;101726.84;5032723;28;20064;-62
2022/04/13 08:09:34;;;;;;;11.63;7.60;;;;;;;18.73;46.68;101733.41;5034361;28;20077;-62
2022/04/13 08:12:01;;;;;;;13.90;7.07;;;;;;;18.77;46.42;101730.38;5045617;28;20087;-60
2022/04/13 08:14:28;;;;;;;11.38;5.85;;;;;;;18.88;46.08;101734.00;5047245;28;20401;-61
2022/04/13 08:16:54;;;;;;;15.18;8.23;;;;;;;18.95;45.36;101735.28;5046519;28;20580;-61
2022/04/13 08:19:21;;;;;;;14.70;8.40;;;;;;;19.03;45.37;101730.25;5037484;28;20049;-61
2022/04/13 08:21:47;;;;;;;10.98;7.00;;;;;;;19.13;44.69;101727.69;5047020;28;20084;-61
2022/04/13 08:24:17;;;;;;;14.48;7.53;;;;;;;19.26;44.54;101730.25;5052268;28;20126;-61
2022/04/13 08:26:44;;;;;;;14.52;6.85;;;;;;;19.31;44.29;101738.75;5046567;28;20132;-60
2022/04/13 08:29:11;;;;;;;15.20;8.25;;;;;;;19.39;43.59;101730.16;5047256;28;20489;-61
2022/04/13 08:31:37;;;;;;;14.00;7.15;;;;;;;19.41;43.62;101736.19;5048364;28;20152;-61
2022/04/13 08:34:04;;;;;;;11.05;6.75;;;;;;;19.46;42.73;101733.19;5049328;28;20128;-59
2022/04/13 08:36:31;;;;;;;13.45;7.30;;;;;;;19.53;42.55;101734.41;5040795;28;20041;-62
2022/04/13 08:38:57;;;;;;;20.45;8.25;;;;;;;19.53;42.12;101732.56;5051678;28;20049;-61
2022/04/13 08:41:41;;;;;;;11.73;8.07;;;;;;;19.67;41.67;101739.47;5045652;28;20048;-62
2022/04/13 08:44:15;;;;;;;12.07;8.55;;;;;;;19.79;41.58;101744.78;5050590;28;20128;-60
2022/04/13 08:46:45;;;;;;;18.65;8.88;;;;;;;19.94;40.61;101740.91;5051758;28;20045;-59
2022/04/13 08:49:14;;;;;;;12.77;7.75;;;;;;;20.02;40.62;101743.81;5051511;28;20083;-60
2022/04/13 08:52:03;;;;;;;12.67;8.60;;;;;;;20.28;40.25;101740.84;5051833;28;20136;-63
2022/04/13 08:54:32;;;;;;;13.60;8.63;;;;;;;20.45;39.94;101747.41;5051295;28;20072;-60
2022/04/13 08:56:58;;;;;;;14.13;9.00;;;;;;;20.47;39.67;101742.81;5050946;28;20489;-59
2022/04/13 09:00:03;;;;;;;13.75;8.85;;;;;;;20.51;39.69;101740.75;5051974;28;20049;-60
2022/04/13 09:02:39;;;;;;;16.98;8.75;;;;;;;20.53;39.51;101739.66;5051868;28;20048;-60
2022/04/13 09:05:12;;;;;;;13.20;8.75;;;;;;;20.56;38.99;101736.72;5050638;28;20091;-60
2022/04/13 09:07:41;;;;;;;13.07;8.57;;;;;;;20.68;39.02;101734.00;5050181;28;20123;-59
2022/04/13 09:10:16;;;;;;;12.77;9.05;;;;;;;20.87;38.40;101728.84;5050769;28;20079;-59
2022/04/13 09:12:44;;;;;;;11.63;8.57;;;;;;;21.05;38.14;101725.56;5050902;28;20052;-60
2022/04/13 09:15:12;;;;;;;15.73;8.05;;;;;;;21.16;37.96;101733.50;5043780;28;20052;-59
2022/04/13 09:17:40;;;;;;;16.65;8.88;;;;;;;21.40;37.90;101731.50;5049979;28;21000;-60
2022/04/13 09:20:07;;;;;;;15.77;7.85;;;;;;;21.53;37.68;101730.31;5050577;28;20053;-59
2022/04/13 09:22:34;;;;;;;14.10;8.18;;;;;;;21.56;37.80;101736.38;5050534;28;20516;-60
2022/04/13 09:25:01;;;;;;;11.27;7.50;;;;;;;21.68;37.60;101729.97;5045655;28;20456;-60
2022/04/13 09:27:29;;;;;;;13.23;8.20;;;;;;;21.75;37.66;101731.13;5046705;28;20045;-64
2022/04/13 09:29:55;;;;;;;14.38;9.00;;;;;;;21.83;37.30;101720.56;5049111;28;20049;-60
2022/04/13 09:32:23;;;;;;;14.13;8.55;;;;;;;21.89;37.05;101729.03;5049064;28;20057;-62
2022/04/13 09:34:51;;;;;;;12.40;7.95;;;;;;;21.95;36.66;101723.13;5050605;28;20490;-60
2022/04/13 09:37:18;;;;;;;11.30;7.57;;;;;;;22.12;36.46;101718.97;5051064;28;20048;-59
2022/04/13 09:39:45;;;;;;;14.82;7.95;;;;;;;22.00;36.47;101715.53;5051115;28;20045;-60
2022/04/13 09:42:15;;;;;;;13.88;8.32;;;;;;;22.07;36.26;101724.72;5050960;28;20098;-60
2022/04/13 09:44:41;;;;;;;11.60;8.13;;;;;;;22.06;36.21;101720.34;5050264;28;20102;-59
2022/04/13 09:47:12;;;;;;;12.73;7.75;;;;;;;22.39;35.72;101715.59;5041593;28;20556;-61
2022/04/13 09:49:47;;;;;;;11.18;7.30;;;;;;;22.57;35.43;101707.72;5030966;28;20058;-60
2022/04/13 09:52:15;;;;;;;13.73;7.72;;;;;;;22.70;35.04;101714.59;5030594;28;20394;-64
2022/04/13 09:54:45;;;;;;;11.40;7.20;;;;;;;22.80;34.68;101718.09;5030443;28;20049;-62
2022/04/13 09:57:22;;;;;;;11.18;7.07;;;;;;;22.83;34.43;101710.63;5031000;28;20049;-64
2022/04/13 09:59:56;;;;;;;11.02;7.07;;;;;;;22.94;34.17;101708.78;5047431;28;20104;-62
2022/04/13 10:02:35;;;;;;;10.30;6.93;;;;;;;23.05;33.89;101705.09;5048788;28;20098;-59
2022/04/13 10:05:07;;;;;;;9.55;6.78;;;;;;;23.22;33.45;101707.03;5049491;28;20114;-60
2022/04/13 10:07:35;;;;;;;10.23;7.72;;;;;;;23.22;33.29;101698.97;5050193;28;20107;-60
2022/04/13 10:10:21;;;;;;;10.82;7.15;;;;;;;23.37;33.37;101696.69;5049610;28;20138;-60
2022/04/13 10:12:53;;;;;;;11.50;6.72;;;;;;;23.57;33.01;101701.97;5048392;28;20049;-60
2022/04/13 10:15:20;;;;;;;10.18;7.00;;;;;;;23.62;32.89;101702.34;5049571;28;20049;-60
2022/04/13 10:17:46;;;;;;;14.77;7.13;;;;;;;23.66;32.67;101697.53;5049715;28;20052;-59
2022/04/13 10:20:13;;;;;;;10.75;7.05;;;;;;;23.80;32.41;101691.66;5048175;28;20083;-59
2022/04/13 10:22:59;;;;;;;9.60;6.47;;;;;;;23.93;32.12;101691.31;5049275;28;20103;-60
2022/04/13 10:25:27;;;;;;;8.68;7.05;;;;;;;23.98;32.11;101683.66;5043657;28;20088;-60
2022/04/13 10:27:59;;;;;;;9.63;6.43;;;;;;;23.85;32.04;101689.38;5036499;28;20118;-60
2022/04/13 10:30:36;;;;;;;10.75;8.50;;;;;;;23.95;32.06;101681.28;5041766;28;20041;-59
2022/04/13 10:33:11;;;;;;;12.88;6.35;;;;;;;24.11;31.59;101681.47;5029684;28;20053;-60
2022/04/13 10:35:43;;;;;;;14.48;6.80;;;;;;;24.19;31.80;101679.81;5029979;28;20095;-64
2022/04/13 10:38:12;;;;;;;8.95;5.97;;;;;;;24.35;31.27;101671.09;5034312;28;20048;-61
2022/04/13 10:40:41;;;;;;;8.25;6.18;;;;;;;24.42;31.02;101672.16;5032571;28;20099;-58
2022/04/13 10:43:11;;;;;;;17.30;6.22;;;;;;;24.58;30.72;101658.00;5049716;28;20509;-64
2022/04/13 10:45:40;;;;;;;9.63;5.97;;;;;;;24.58;30.40;101656.19;5049427;28;20053;-60
2022/04/13 10:48:10;;;;;;;10.75;6.63;;;;;;;24.67;30.33;101658.94;5049554;28;20072;-59
2022/04/13 10:50:46;;;;;;;16.42;8.30;;;;;;;24.72;29.95;101660.16;5049127;28;20049;-64
2022/04/13 10:53:28;;;;;;;11.98;7.35;;;;;;;24.86;29.77;101645.31;5049318;28;20053;-60
2022/04/13 10:55:59;;;;;;;11.35;6.63;;;;;;;25.06;29.29;101637.00;5029078;28;20045;-60
2022/04/13 10:58:58;;;;;;;8.80;6.20;;;;;;;25.11;28.91;101645.44;5028934;28;20081;-64
2022/04/13 11:01:30;;;;;;;7.35;6.05;;;;;;;25.22;28.86;101638.94;5049233;28;20049;-60
2022/04/13 11:03:57;;;;;;;11.23;5.90;;;;;;;25.33;28.48;101646.72;5049471;28;20489;-60
2022/04/13 11:06:24;;;;;;;9.70;5.72;;;;;;;25.44;28.25;101642.91;5048769;28;20563;-60
2022/04/13 11:09:46;;;;;;;11.32;6.20;;;;;;;25.56;28.18;101635.34;5048805;28;20052;-59
2022/04/13 11:12:13;;;;;;;12.25;6.55;;;;;;;25.64;27.83;101632.69;5003995;28;20046;-60
2022/04/13 11:14:51;;;;;;;12.82;6.10;;;;;;;25.72;27.67;101646.16;5042909;28;20095;-60
2022/04/13 11:17:18;;;;;;;8.38;5.63;;;;;;;25.79;27.56;101635.59;5048360;28;20041;-59
2022/04/13 11:19:48;;;;;;;11.38;6.28;;;;;;;25.84;27.44;101635.94;5047778;28;20049;-62